ADDS METAR Data INFO
IDs: Format: Raw Decoded Include TAF

Data at: 2054 UTC 24 Jun 2017

KCFD 242035Z AUTO 11005KT 10SM CLR 27/20 A3006 RMK AO2 T02730202
KCFD 242015Z AUTO 10005KT 10SM CLR 27/21 A3008 RMK AO2 T02740205
KCFD 241955Z AUTO 06003KT 10SM SCT031 BKN100 27/20 A3010 RMK AO2 T02740202
KCFD 241935Z AUTO 35004KT 10SM SCT029 BKN100 28/21 A3011 RMK AO2 T02760205
KCFD 241915Z AUTO 08003KT 10SM SCT027 27/20 A3012 RMK AO2 T02730202
KCFD 241855Z AUTO 01008KT 10SM SCT025 28/21 A3013 RMK AO2 T02790210
KCFD 241835Z AUTO 01008KT 10SM SCT023 27/20 A3013 RMK AO2 T02700204
KCFD 241815Z AUTO 01011G14KT 10SM SCT023 27/20 A3014 RMK AO2 T02660203
KCFD 241755Z AUTO 03008KT 10SM BKN021 BKN026 26/20 A3015 RMK AO2 T02600203 10279 20210
KCFD 241735Z AUTO 02010G22KT 10SM OVC023 26/21 A3015 RMK AO2 T02570206
KCFD 241715Z AUTO 02012G20KT 10SM BKN025 26/21 A3015 RMK AO2 T02580205
KCFD 241655Z AUTO 01016G22KT 10SM BKN025 26/21 A3014 RMK AO2 T02630206
KCFD 241635Z AUTO 01014G22KT 10SM SCT023 BKN029 27/21 A3014 RMK AO2 T02720212
KCFD 241615Z AUTO 02012G19KT 10SM CLR 27/21 A3013 RMK AO2 LTG DSNT S AND SW T02670210
KCFD 241555Z AUTO 05011KT 10SM SCT020 27/21 A3012 RMK AO2 LTG DSNT SW T02710212
KCFD 241535Z AUTO 04007KT 010V070 10SM CLR 27/22 A3010 RMK AO2 LTG DSNT SE AND S T02730220
KCFD 241515Z AUTO 04005KT 10SM CLR 27/22 A3006 RMK AO2 LTG DSNT S AND SW T02670215
KCFD 241455Z AUTO 00000KT 10SM CLR 26/22 A3004 RMK AO2 LTG DSNT SE THRU SW T02590221
KCFD 241435Z AUTO 30005KT 10SM CLR 25/22 A3004 RMK AO2 LTG DSNT SE THRU SW T02530224
KCFD 241415Z AUTO 27003KT 10SM VCTS CLR 24/23 A3002 RMK AO2 LTG DSNT SE AND S T02400230
KCFD 241355Z AUTO 27003KT 10SM CLR 23/23 A3002 RMK AO2 LTG DSNT SE AND S T02340232
KCFD 241335Z AUTO 00000KT 10SM VCTS SCT100 BKN120 23/23 A3002 RMK AO2 LTG DSNT SE AND S T02250225
KCFD 241315Z AUTO 31004KT 10SM OVC090 23/23 A3003 RMK AO2 LTG DSNT SE AND NW T02250225
KCFD 241255Z AUTO 00000KT 10SM SCT080 SCT110 22/22 A3003 RMK AO2 LTG DSNT ALQS T02170217
KCFD 241235Z AUTO 06005KT 10SM CLR 21/21 A3005 RMK AO2 LTG DSNT S T02130213
KCFD 241215Z AUTO 03006KT 10SM SCT041 BKN055 BKN100 21/21 A3005 RMK AO2 LTG DSNT E S AND NW T02100210
KCFD 241155Z AUTO 03005KT 5SM RA SCT007 OVC041 21/21 A3005 RMK AO2 LTG DSNT E S AND NW P0028 60028 70028 T02100210 10270 20206
KCFD 241135Z AUTO 01007KT 10SM -RA SCT010 BKN034 OVC050 21/21 A3005 RMK AO2 LTG DSNT E S AND NW P0024 T02070207
KCFD 241115Z AUTO 01012G19KT 2 1/2SM RA SCT015 BKN026 OVC041 21/21 A3004 RMK AO2 VIS 1 1/2V5 LTG DSNT SE AND S P0023 T02060206
KCFD 241055Z AUTO 03012G18KT 10SM SCT006 OVC015 24/21 A3004 RMK AO2 LTG DSNT S T02380205
KCFD 241035Z AUTO 06004KT 7SM OVC006 25/25 A3002 RMK AO2 LTG DSNT NE THRU SE T02520252
KCFD 241015Z AUTO 07004KT 7SM OVC006 25/25 A3001 RMK AO2 LTG DSNT NE AND NW T02520252
KCFD 240955Z AUTO 08003KT 7SM BKN006 OVC012 25/25 A3000 RMK AO2 LTG DSNT NE T02510251
KCFD 240935Z AUTO 08004KT 7SM OVC008 25/25 A2999 RMK AO2 LTG DSNT NE T02500250
KCFD 240915Z AUTO 00000KT 7SM BKN008 25/25 A2998 RMK AO2 LTG DSNT NW THRU NE T02500250
KCFD 240855Z AUTO 15004KT 10SM SCT011 25/25 A2996 RMK AO2 LTG DSNT N AND NE T02540254
KCFD 240835Z AUTO 17006KT 10SM SCT011 26/26 A2996 RMK AO2 LTG DSNT N AND NE T02560256
KCFD 240815Z AUTO 17005KT 10SM BKN011 26/26 A2995 RMK AO2 LTG DSNT NE T02580258
KCFD 240755Z AUTO 17008G14KT 10SM BKN011 26/26 A2995 RMK AO2 T02590256
KCFD 240735Z AUTO 17006KT 10SM SCT013 26/25 A2996 RMK AO2 T02600248
KCFD 240715Z AUTO 17010KT 10SM CLR 26/24 A2996 RMK AO2 T02620243
KCFD 240655Z AUTO 16006KT 10SM CLR 26/24 A2996 RMK AO2 T02630240
KCFD 240635Z AUTO 17008KT 10SM CLR 27/24 A2996 RMK AO2 T02660240
KCFD 240615Z AUTO 17006KT 10SM CLR 27/24 A2995 RMK AO2 T02670237
KCFD 240555Z AUTO 16006KT 10SM CLR 27/24 A2995 RMK AO2 T02700235 10337 20270 403550255
KCFD 240535Z AUTO 17006KT 10SM CLR 27/24 A2995 RMK AO2 T02740235
KCFD 240515Z AUTO 16005KT 10SM CLR 28/23 A2995 RMK AO2 T02750233
KCFD 240455Z AUTO 16006KT 10SM CLR 28/23 A2993 RMK AO2 T02790232
KCFD 240435Z AUTO 17008KT 10SM CLR 28/23 A2992 RMK AO2 T02840231
KCFD 240415Z AUTO 15007KT 10SM CLR 29/23 A2992 RMK AO2 T02850231
KCFD 240355Z AUTO 15011G15KT 10SM CLR 29/23 A2990 RMK AO2 T02890231
KCFD 240335Z AUTO 15008KT 10SM CLR 29/23 A2990 RMK AO2 T02900231
KCFD 240315Z AUTO 15007KT 10SM CLR 29/23 A2989 RMK AO2 T02860230
KCFD 240255Z AUTO 12006KT 10SM CLR 28/23 A2987 RMK AO2 T02780231
KCFD 240235Z AUTO 12003KT 10SM CLR 29/23 A2986 RMK AO2 T02860231
KCFD 240215Z AUTO 13005KT 10SM CLR 29/24 A2985 RMK AO2 T02860235
KCFD 240155Z AUTO 13005KT 10SM CLR 29/24 A2984 RMK AO2 T02940236
KCFD 240135Z AUTO 12004KT 10SM CLR 30/24 A2984 RMK AO2 T03030238
KCFD 240115Z AUTO 13004KT 10SM CLR 31/24 A2983 RMK AO2 T03120238
KCFD 240055Z AUTO 12005KT 10SM CLR 32/24 A2982 RMK AO2 T03180237
KCFD 240035Z AUTO 11007KT 10SM CLR 32/24 A2982 RMK AO2 T03220236
KCFD 240015Z AUTO 15007KT 10SM CLR 33/22 A2982 RMK AO2 T03320222
KCFD 232355Z AUTO 16008KT 10SM CLR 34/23 A2981 RMK AO2 T03380226 10355 20333
KCFD 232335Z AUTO 15008KT 10SM CLR 34/23 A2980 RMK AO2 T03400227
KCFD 232315Z AUTO 15006KT 10SM CLR 34/23 A2981 RMK AO2 T03420226
KCFD 232255Z AUTO 16009KT 10SM CLR 35/23 A2980 RMK AO2 T03480226
KCFD 232235Z AUTO 13011KT 10SM CLR 35/23 A2981 RMK AO2 T03470231
KCFD 232215Z AUTO 14011KT 10SM CLR 34/23 A2981 RMK AO2 T03390232
KCFD 232155Z AUTO 14009KT 10SM BKN049 35/23 A2982 RMK AO2 T03450234
KCFD 232135Z AUTO 14009KT 10SM BKN049 34/23 A2982 RMK AO2 T03410233
KCFD 232115Z AUTO 15011G16KT 10SM SCT049 34/24 A2982 RMK AO2 T03440236
KCFD 232055Z AUTO 15010G15KT 140V200 10SM BKN047 35/24 A2981 RMK AO2 T03520239
KCFD 232035Z AUTO 14010G17KT 10SM SCT045 35/24 A2982 RMK AO2 T03510243
KCFD 232015Z AUTO 15009G14KT 130V190 10SM CLR 35/23 A2982 RMK AO2 T03500234
KCFD 231955Z AUTO 16012G16KT 10SM CLR 35/24 A2982 RMK AO2 T03470240
KCFD 231935Z AUTO 16008G14KT 140V200 10SM CLR 35/24 A2982 RMK AO2 T03450236
KCFD 231915Z AUTO 17009G16KT 10SM SCT042 34/24 A2982 RMK AO2 T03440239
KCFD 231855Z AUTO 14008KT 100V170 10SM CLR 34/24 A2983 RMK AO2 T03420240
KCFD 231835Z AUTO 15010G14KT 10SM SCT040 34/24 A2984 RMK AO2 T03350237
KCFD 231815Z AUTO 16007G14KT 140V200 10SM SCT040 34/24 A2985 RMK AO2 T03370236
KCFD 231755Z AUTO 15013G19KT 10SM CLR 34/24 A2984 RMK AO2 T03390240 10339 20257
KCFD 231735Z AUTO 18009G15KT 10SM SCT037 33/24 A2985 RMK AO2 T03330238
KCFD 231715Z AUTO 17008KT 10SM SCT034 33/24 A2984 RMK AO2 T03290236
KCFD 231655Z AUTO 19007KT 10SM SCT034 33/24 A2985 RMK AO2 T03270243
KCFD 231635Z AUTO 18008G16KT 10SM SCT030 32/24 A2985 RMK AO2 T03210236
KCFD 231615Z AUTO 16010KT 10SM BKN028 32/24 A2985 RMK AO2 T03150240
KCFD 231555Z AUTO 19009G16KT 10SM BKN026 31/24 A2984 RMK AO2 T03100238
KCFD 231535Z AUTO 17012KT 10SM BKN026 31/24 A2984 RMK AO2 T03070239
KCFD 231515Z AUTO 18013G17KT 10SM SCT022 SCT030 30/24 A2984 RMK AO2 T03040240
KCFD 231455Z AUTO 19008KT 10SM BKN018 BKN025 BKN032 29/24 A2984 RMK AO2 LTG DSNT E T02860243
KCFD 231435Z AUTO 21010G16KT 10SM OVC018 29/25 A2984 RMK AO2 T02880245
KCFD 231415Z AUTO 18009G15KT 10SM OVC018 28/25 A2983 RMK AO2 T02840245
KCFD 231355Z AUTO 17012G18KT 10SM OVC014 28/25 A2982 RMK AO2 T02810251
KCFD 231335Z AUTO 17010G16KT 10SM OVC014 28/25 A2981 RMK AO2 T02760254
KCFD 231315Z AUTO 18011G16KT 10SM OVC012 27/26 A2981 RMK AO2 T02720256
KCFD 231255Z AUTO 17008KT 10SM OVC012 27/26 A2981 RMK AO2 T02660261
KCFD 231235Z AUTO 16007KT 10SM OVC010 26/26 A2980 RMK AO2 T02630262
KCFD 231215Z AUTO 17006KT 10SM OVC010 26/26 A2980 RMK AO2 T02590259
KCFD 231155Z AUTO 16008KT 10SM OVC010 26/26 A2979 RMK AO2 7//// T02570257 10264 20255
KCFD 231135Z AUTO 16008KT 10SM OVC010 26/26 A2978 RMK AO2 T02560256
KCFD 231115Z AUTO 17005KT 10SM OVC010 26/26 A2978 RMK AO2 T02560256
KCFD 231055Z AUTO 17007KT 10SM OVC010 26/26 A2977 RMK AO2 T02560256
KCFD 231035Z AUTO 17006KT 10SM OVC010 26/26 A2977 RMK AO2 T02560256
KCFD 231015Z AUTO 17008KT 10SM OVC010 26/26 A2976 RMK AO2 T02560256
KCFD 230955Z AUTO 17006KT 10SM OVC010 26/26 A2977 RMK AO2 T02560256
KCFD 230935Z AUTO 17008KT 10SM OVC010 26/26 A2977 RMK AO2 T02570257
KCFD 230915Z AUTO 17007KT 10SM OVC010 26/26 A2977 RMK AO2 T02570257
KCFD 230855Z AUTO 16007KT 10SM OVC010 26/26 A2977 RMK AO2 T02570257


Page loaded:  20:54 UTC  |   01:54 PM Pacific  |   02:54 PM Mountain  |   03:54 PM Central  |   04:54 PM Eastern

 

ADVISORIES

FORECASTS

FORECASTS

OBSERVATIONS

USER TOOLS

ABOUT US